Canden, North Carolina
Current Conditions -  °F | °C
As of 10:01 PM on Sunday 23 Nov 2014 (Local Time) from KHFF Reporting Station
Rain Showers Rain Showers  
Wind Chill: 64°   Ceiling: 9500
Heat Index: 64°   Visibility: 10mi
Dew Point: 63°   Wind: 10mph
Humidity: 94%   Direction: 190°S
Pressure: 29.84"   Gusts: 26mph
Location:  35.2241°N, 79.7861°W
Report Text: KHFF 240301Z AUTO 19009G23KT 10SM +SHRA SCT005 SCT055 BKN095 18/17 A2984 RMK AO2 LTG DSNT S
Loading
Personal Weather Stations






























Interactive Weather Map New forecast layout! Learn more

10-Day Weather Forecast

Advertisements
Track Severe Weather on mobile